Time;durP1;ratioP1;P1;durP2;ratioP2;P2;SDS_P1;SDS_P2;PMS_P1;PMS_P2;Temp;Humidity;BMP_temperature;BMP_pressure;BME280_temperature;BME280_humidity;BME280_pressure;Samples;Min_cycle;Max_cycle;Signal;HPM_P1;HPM_P2
2022/10/24 00:00:46;;;;;;;9.90;1.88;;;;;;;16.05;91.19;100420.88;5043867;28;20044;-50
2022/10/24 00:03:12;;;;;;;5.07;1.95;;;;;;;16.03;90.59;100421.78;5044766;28;20802;-49
2022/10/24 00:05:46;;;;;;;7.35;1.77;;;;;;;16.05;90.34;100426.06;5051306;28;20036;-51
2022/10/24 00:08:11;;;;;;;8.15;2.20;;;;;;;16.03;89.87;100407.06;5046419;28;20556;-48
2022/10/24 00:10:42;;;;;;;8.27;1.90;;;;;;;16.04;89.85;100419.16;5046341;28;20116;-52
2022/10/24 00:13:08;;;;;;;7.93;1.80;;;;;;;16.00;89.54;100414.84;5049916;28;20115;-50
2022/10/24 00:15:33;;;;;;;6.72;1.90;;;;;;;16.01;88.78;100403.59;5042729;28;20061;-51
2022/10/24 00:17:59;;;;;;;9.10;2.05;;;;;;;16.00;88.56;100396.69;5050984;28;20505;-51
2022/10/24 00:20:24;;;;;;;10.63;2.40;;;;;;;16.01;88.21;100411.38;5043758;28;20515;-50
2022/10/24 00:22:49;;;;;;;8.23;2.10;;;;;;;15.99;88.36;100402.75;5046206;28;20033;-50
2022/10/24 00:25:15;;;;;;;7.75;1.65;;;;;;;16.00;87.90;100401.00;5045282;28;20075;-51
2022/10/24 00:27:40;;;;;;;10.60;1.92;;;;;;;16.00;87.77;100412.25;5049644;28;20032;-51
2022/10/24 00:30:06;;;;;;;7.22;1.73;;;;;;;16.01;87.25;100403.59;5047322;28;20039;-47
2022/10/24 00:32:32;;;;;;;7.68;1.75;;;;;;;15.98;87.46;100407.94;5050065;28;20032;-47
2022/10/24 00:34:57;;;;;;;9.30;1.75;;;;;;;15.99;86.66;100386.31;5047318;28;20044;-51
2022/10/24 00:37:23;;;;;;;6.60;1.60;;;;;;;16.00;86.70;100411.38;5046020;28;20052;-51
2022/10/24 00:39:48;;;;;;;4.15;1.40;;;;;;;16.01;86.08;100410.50;5042201;28;20036;-51
2022/10/24 00:42:13;;;;;;;6.00;1.77;;;;;;;16.00;85.53;100401.88;5046068;28;20564;-52
2022/10/24 00:44:40;;;;;;;6.57;1.58;;;;;;;16.01;85.67;100403.59;5042710;28;20044;-49
2022/10/24 00:47:09;;;;;;;6.55;1.88;;;;;;;15.99;85.45;100400.16;5047010;28;20047;-51
2022/10/24 00:49:59;;;;;;;7.90;2.10;;;;;;;16.00;85.40;100395.81;5046771;28;20029;-50
2022/10/24 00:52:32;;;;;;;5.07;1.67;;;;;;;15.98;86.35;100395.84;5047644;28;20764;-53
2022/10/24 00:55:00;;;;;;;6.60;2.03;;;;;;;15.98;84.95;100388.06;5044772;28;20078;-50
2022/10/24 00:57:39;;;;;;;8.15;1.80;;;;;;;15.97;86.01;100385.47;5046435;28;20028;-50
2022/10/24 01:00:09;;;;;;;7.35;2.20;;;;;;;15.94;85.10;100386.31;5046789;28;20020;-53
2022/10/24 01:02:35;;;;;;;7.90;2.42;;;;;;;15.93;84.89;100379.41;5043892;28;20504;-52
2022/10/24 01:05:02;;;;;;;8.05;1.80;;;;;;;15.92;84.31;100375.09;5050593;28;20031;-49
2022/10/24 01:07:54;;;;;;;8.00;2.33;;;;;;;15.93;84.86;100383.75;5041787;28;20057;-50
2022/10/24 01:10:29;;;;;;;10.30;2.17;;;;;;;15.94;85.31;100381.13;5044790;28;20057;-49
2022/10/24 01:13:06;;;;;;;6.28;1.90;;;;;;;15.93;84.58;100383.75;5048386;28;20428;-50
2022/10/24 01:15:43;;;;;;;9.25;1.98;;;;;;;15.92;84.24;100382.00;5045125;28;20028;-50
2022/10/24 01:18:23;;;;;;;6.30;2.15;;;;;;;15.92;84.19;100376.84;5045573;28;20037;-49
2022/10/24 01:21:01;;;;;;;9.30;2.33;;;;;;;15.91;84.06;100381.16;5048917;28;20039;-49
2022/10/24 01:23:52;;;;;;;10.60;2.20;;;;;;;15.94;83.94;100380.28;5049569;28;20036;-50
2022/10/24 01:26:50;;;;;;;8.85;2.25;;;;;;;15.95;84.03;100375.06;5046962;28;20027;-49
2022/10/24 01:30:20;;;;;;;6.38;1.83;;;;;;;15.97;84.17;100378.56;5047514;28;20470;-50
2022/10/24 01:32:57;;;;;;;7.25;2.00;;;;;;;15.90;83.39;100368.19;5046244;28;20047;-51
2022/10/24 01:35:34;;;;;;;8.80;2.25;;;;;;;15.90;83.14;100371.66;5050169;28;20444;-51
2022/10/24 01:38:14;;;;;;;4.85;1.85;;;;;;;15.92;83.04;100367.31;5046515;28;20091;-52
2022/10/24 01:40:44;;;;;;;6.03;2.03;;;;;;;15.91;82.74;100370.78;5050070;28;20028;-51
2022/10/24 01:43:13;;;;;;;8.40;2.10;;;;;;;15.88;82.06;100368.19;5044899;28;20048;-50
2022/10/24 01:45:44;;;;;;;6.13;1.95;;;;;;;15.87;83.06;100365.59;5047704;28;20099;-48
2022/10/24 01:48:14;;;;;;;5.60;1.90;;;;;;;15.86;82.39;100364.75;5043974;28;20033;-50
2022/10/24 01:50:43;;;;;;;8.57;2.05;;;;;;;15.87;82.11;100366.47;5050266;28;20017;-50
2022/10/24 01:53:09;;;;;;;7.68;1.88;;;;;;;15.87;81.73;100366.47;5044961;28;20029;-49
2022/10/24 01:55:36;;;;;;;6.40;1.88;;;;;;;15.86;80.92;100358.69;5044967;28;20047;-48
2022/10/24 01:58:02;;;;;;;9.35;2.10;;;;;;;15.86;81.22;100351.78;5041872;28;20059;-50
2022/10/24 02:00:27;;;;;;;5.38;1.83;;;;;;;15.86;81.02;100345.72;5046395;28;20029;-52
2022/10/24 02:03:10;;;;;;;5.72;1.75;;;;;;;15.90;81.18;100355.25;5044186;28;20044;-52
2022/10/24 02:05:42;;;;;;;8.93;2.13;;;;;;;15.84;81.33;100350.94;5050907;28;20112;-52
2022/10/24 02:08:16;;;;;;;9.57;2.05;;;;;;;15.87;80.93;100352.63;5040215;28;20047;-47
2022/10/24 02:10:49;;;;;;;6.05;1.63;;;;;;;15.85;80.75;100354.38;5046313;28;20074;-47
2022/10/24 02:13:38;;;;;;;5.22;1.92;;;;;;;15.86;80.65;100349.19;5043359;28;20719;-51
2022/10/24 02:16:04;;;;;;;8.27;1.88;;;;;;;15.84;80.17;100357.84;5040940;28;20504;-47
2022/10/24 02:18:31;;;;;;;6.07;1.85;;;;;;;15.83;79.66;100346.56;5044433;28;20037;-46
2022/10/24 02:21:06;;;;;;;4.35;1.50;;;;;;;15.85;80.20;100347.47;5042369;28;20029;-49
2022/10/24 02:23:44;;;;;;;5.28;1.60;;;;;;;15.83;80.02;100356.94;5046302;28;20029;-51
2022/10/24 02:26:20;;;;;;;5.20;1.65;;;;;;;15.85;79.32;100352.66;5041204;28;20025;-51
2022/10/24 02:28:48;;;;;;;7.35;1.60;;;;;;;15.84;78.69;100355.25;5044497;28;20029;-50
2022/10/24 02:31:21;;;;;;;6.38;1.42;;;;;;;15.82;78.91;100352.63;5045144;28;20041;-50
2022/10/24 02:33:48;;;;;;;4.13;1.55;;;;;;;15.82;78.64;100344.84;5044129;28;20029;-51
2022/10/24 02:36:19;;;;;;;8.43;1.65;;;;;;;15.84;78.28;100347.47;5045870;28;20090;-50
2022/10/24 02:38:47;;;;;;;9.55;1.52;;;;;;;15.82;78.76;100337.94;5044976;28;20059;-50
2022/10/24 02:41:20;;;;;;;9.75;2.03;;;;;;;15.83;78.68;100336.22;5044955;28;20040;-51
2022/10/24 02:43:45;;;;;;;6.65;1.25;;;;;;;15.84;78.06;100347.47;5043109;28;20524;-50
2022/10/24 02:46:13;;;;;;;9.93;1.33;;;;;;;15.81;77.84;100353.50;5045569;28;20127;-50
2022/10/24 02:48:46;;;;;;;8.25;1.48;;;;;;;15.82;78.35;100350.03;5047433;28;20095;-51
2022/10/24 02:51:14;;;;;;;6.78;1.40;;;;;;;15.79;77.91;100353.50;5041872;28;20436;-52
2022/10/24 02:53:39;;;;;;;6.22;1.85;;;;;;;15.79;77.57;100350.06;5042885;28;20033;-51
2022/10/24 02:56:05;;;;;;;5.15;1.33;;;;;;;15.80;77.94;100349.19;5042181;28;20036;-51
2022/10/24 02:58:30;;;;;;;9.02;1.45;;;;;;;15.80;77.83;100352.66;5047617;28;20401;-49
2022/10/24 03:00:55;;;;;;;7.85;1.73;;;;;;;15.80;77.61;100349.19;5046970;28;20052;-51
2022/10/24 03:03:21;;;;;;;4.15;1.38;;;;;;;15.80;77.30;100351.78;5045990;28;20378;-52
2022/10/24 03:05:47;;;;;;;5.90;1.63;;;;;;;15.78;77.55;100354.38;5047874;28;20072;-52
2022/10/24 03:08:12;;;;;;;4.55;1.50;;;;;;;15.77;77.38;100350.06;5042831;28;20119;-50
2022/10/24 03:10:37;;;;;;;5.80;1.52;;;;;;;15.77;77.35;100357.84;5042104;28;20037;-52
2022/10/24 03:13:03;;;;;;;5.00;1.33;;;;;;;15.77;77.10;100363.03;5046191;28;20090;-50
2022/10/24 03:15:29;;;;;;;8.02;1.67;;;;;;;15.78;77.03;100363.91;5044718;28;20028;-50
2022/10/24 03:17:54;;;;;;;5.95;1.40;;;;;;;15.76;76.53;100358.69;5048773;28;20095;-49
2022/10/24 03:20:19;;;;;;;10.07;1.55;;;;;;;15.78;76.41;100363.91;5042397;28;20064;-49
2022/10/24 03:22:45;;;;;;;6.15;1.30;;;;;;;15.77;76.44;100367.31;5046024;28;20035;-49
2022/10/24 03:25:10;;;;;;;5.60;1.20;;;;;;;15.77;76.86;100355.25;5044542;28;20029;-48
2022/10/24 03:27:36;;;;;;;5.88;1.27;;;;;;;15.78;76.37;100348.34;5045308;28;20116;-52
2022/10/24 03:30:02;;;;;;;7.97;1.55;;;;;;;15.76;76.77;100352.66;5042814;28;20067;-48
2022/10/24 03:32:28;;;;;;;5.70;1.30;;;;;;;15.78;76.89;100353.53;5041969;28;20037;-50
2022/10/24 03:34:53;;;;;;;5.18;1.10;;;;;;;15.77;76.83;100344.00;5041396;28;20087;-50
2022/10/24 03:37:19;;;;;;;6.65;1.35;;;;;;;15.77;76.94;100349.19;5044763;28;20048;-49
2022/10/24 03:39:44;;;;;;;8.70;1.73;;;;;;;15.76;76.95;100350.06;5051622;28;20447;-50
2022/10/24 03:42:10;;;;;;;7.47;1.58;;;;;;;15.75;76.85;100349.19;5050792;28;20036;-51
2022/10/24 03:44:35;;;;;;;6.85;1.30;;;;;;;15.76;76.87;100342.28;5049774;28;20116;-47
2022/10/24 03:47:00;;;;;;;9.38;1.13;;;;;;;15.75;77.48;100338.81;5052551;28;20796;-51
2022/10/24 03:49:26;;;;;;;6.80;1.35;;;;;;;15.75;77.68;100336.22;5052464;28;20123;-52
2022/10/24 03:51:51;;;;;;;4.93;1.25;;;;;;;15.77;77.67;100336.22;5043638;28;20076;-50
2022/10/24 03:54:16;;;;;;;6.72;1.38;;;;;;;15.74;77.28;100337.09;5046136;28;20139;-51
2022/10/24 03:56:42;;;;;;;6.22;1.30;;;;;;;15.71;77.49;100336.22;5049099;28;20160;-50
2022/10/24 03:59:08;;;;;;;3.83;1.50;;;;;;;15.73;77.63;100326.75;5045901;28;20040;-52
2022/10/24 04:01:34;;;;;;;6.93;1.77;;;;;;;15.72;77.35;100328.47;5045193;28;20029;-48
2022/10/24 04:03:59;;;;;;;6.57;1.25;;;;;;;15.71;77.97;100326.75;5048984;28;20036;-51
2022/10/24 04:06:24;;;;;;;8.15;1.40;;;;;;;15.70;78.02;100334.50;5044059;28;20417;-51
2022/10/24 04:08:50;;;;;;;10.05;1.50;;;;;;;15.67;77.97;100331.94;5052905;28;21278;-49
2022/10/24 04:11:15;;;;;;;9.15;1.95;;;;;;;15.68;77.61;100331.06;5045115;28;20041;-48
2022/10/24 04:13:40;;;;;;;8.55;1.50;;;;;;;15.70;77.33;100329.31;5043691;28;20026;-48
2022/10/24 04:16:07;;;;;;;5.80;1.65;;;;;;;15.70;77.25;100344.88;5039828;28;20040;-50
2022/10/24 04:18:32;;;;;;;6.32;1.33;;;;;;;15.69;77.39;100336.25;5039017;28;20552;-50
2022/10/24 04:20:58;;;;;;;7.60;1.55;;;;;;;15.68;77.34;100326.75;5055673;28;20115;-50
2022/10/24 04:23:23;;;;;;;7.47;1.42;;;;;;;15.69;77.74;100327.59;5045041;28;21737;-47
2022/10/24 04:25:48;;;;;;;3.83;1.30;;;;;;;15.70;77.25;100330.19;5047379;28;20105;-50
2022/10/24 04:28:14;;;;;;;6.72;1.50;;;;;;;15.66;77.94;100320.72;5048716;28;20373;-49
2022/10/24 04:30:39;;;;;;;8.02;1.80;;;;;;;15.68;77.46;100323.28;5049600;28;20056;-49
2022/10/24 04:33:05;;;;;;;5.75;1.20;;;;;;;15.67;77.53;100337.13;5039198;28;20513;-50
2022/10/24 04:35:30;;;;;;;6.60;1.30;;;;;;;15.69;77.02;100332.78;5043481;28;20155;-49
2022/10/24 04:37:55;;;;;;;13.27;1.50;;;;;;;15.68;77.40;100326.75;5048219;28;20067;-47
2022/10/24 04:40:21;;;;;;;7.15;1.45;;;;;;;15.69;77.19;100325.00;5047605;28;20029;-48
2022/10/24 04:42:46;;;;;;;6.18;1.60;;;;;;;15.67;77.26;100324.16;5048349;28;20115;-50
2022/10/24 04:45:12;;;;;;;8.25;1.50;;;;;;;15.68;77.13;100331.94;5045747;28;20066;-51
2022/10/24 04:47:37;;;;;;;7.28;1.52;;;;;;;15.68;76.82;100329.34;5049776;28;20126;-51
2022/10/24 04:50:03;;;;;;;4.93;1.27;;;;;;;15.69;77.09;100332.78;5049869;28;20094;-49
2022/10/24 04:52:28;;;;;;;6.75;1.30;;;;;;;15.68;76.49;100337.09;5049355;28;20016;-50
2022/10/24 04:54:54;;;;;;;7.40;1.20;;;;;;;15.66;77.24;100331.06;5049872;28;20035;-50
2022/10/24 04:57:20;;;;;;;5.57;1.20;;;;;;;15.67;76.74;100329.34;5050969;28;20108;-50
2022/10/24 04:59:45;;;;;;;7.30;1.38;;;;;;;15.67;76.57;100331.94;5049018;28;20127;-50
2022/10/24 05:02:11;;;;;;;6.70;1.30;;;;;;;15.68;76.64;100331.06;5052167;28;20083;-50
2022/10/24 05:04:36;;;;;;;8.43;1.33;;;;;;;15.68;76.78;100338.84;5052776;28;20033;-48
2022/10/24 05:07:01;;;;;;;6.95;1.15;;;;;;;15.69;76.64;100337.97;5054445;28;20029;-50
2022/10/24 05:09:27;;;;;;;5.15;1.30;;;;;;;15.68;76.75;100342.28;5052986;28;20523;-50
2022/10/24 05:11:56;;;;;;;7.68;1.80;;;;;;;15.68;76.99;100338.84;5052631;28;20460;-49
2022/10/24 05:14:21;;;;;;;;;;;;;;;15.76;77.22;100337.94;5046739;28;20036;-51
2022/10/24 05:16:48;;;;;;;8.32;1.70;;;;;;;15.70;76.98;100343.13;5049623;28;19963;-50
2022/10/24 05:19:14;;;;;;;7.82;1.77;;;;;;;15.69;76.87;100336.25;5052529;28;20520;-50
2022/10/24 05:21:39;;;;;;;5.53;1.25;;;;;;;15.69;77.01;100353.53;5052955;28;20056;-50
2022/10/24 05:24:05;;;;;;;7.00;1.48;;;;;;;15.69;77.24;100341.41;5054062;28;20120;-49
2022/10/24 05:26:30;;;;;;;5.55;1.20;;;;;;;15.70;76.98;100358.69;5054440;28;20036;-50
2022/10/24 05:28:55;;;;;;;4.78;1.23;;;;;;;15.70;76.93;100366.47;5053634;28;20082;-51
2022/10/24 05:31:21;;;;;;;7.88;1.67;;;;;;;15.71;77.38;100357.84;5049990;28;20036;-51
2022/10/24 05:33:46;;;;;;;8.27;1.48;;;;;;;15.70;77.51;100361.28;5048520;28;20036;-50
2022/10/24 05:36:12;;;;;;;9.98;1.35;;;;;;;15.70;78.26;100361.28;5052185;28;20117;-49
2022/10/24 05:38:37;;;;;;;11.40;1.70;;;;;;;15.71;77.86;100347.50;5043574;28;22443;-49
2022/10/24 05:41:02;;;;;;;6.60;1.38;;;;;;;15.70;78.22;100368.19;5043597;28;20029;-52
2022/10/24 05:43:28;;;;;;;7.88;1.40;;;;;;;15.70;78.21;100363.88;5042910;28;20060;-52
2022/10/24 05:45:53;;;;;;;7.32;1.33;;;;;;;15.68;78.38;100355.25;5044392;28;20049;-50
2022/10/24 05:48:18;;;;;;;9.52;1.50;;;;;;;15.71;78.21;100351.78;5044258;28;20057;-47
2022/10/24 05:50:44;;;;;;;10.98;1.70;;;;;;;15.71;78.82;100351.78;5043990;28;20037;-48
2022/10/24 05:53:09;;;;;;;8.48;1.52;;;;;;;15.71;78.35;100362.16;5043475;28;20029;-49
2022/10/24 05:55:35;;;;;;;9.15;1.52;;;;;;;15.69;78.78;100358.69;5043999;28;20119;-49
2022/10/24 05:58:01;;;;;;;9.55;1.50;;;;;;;15.69;78.40;100361.28;5045308;28;20036;-50
2022/10/24 06:00:26;;;;;;;10.60;1.42;;;;;;;15.70;78.12;100363.88;5043872;28;20029;-48
2022/10/24 06:02:52;;;;;;;5.43;1.13;;;;;;;15.70;78.26;100370.78;5044982;28;20570;-47
2022/10/24 06:05:18;;;;;;;9.40;1.50;;;;;;;15.70;77.95;100368.19;5041178;28;20037;-51
2022/10/24 06:07:43;;;;;;;7.90;1.38;;;;;;;15.71;77.98;100368.22;5042994;28;20393;-50
2022/10/24 06:10:10;;;;;;;9.38;1.75;;;;;;;15.71;77.99;100362.16;5040826;28;20409;-52
2022/10/24 06:12:35;;;;;;;8.32;1.60;;;;;;;15.70;78.05;100369.06;5056781;28;20021;-51
2022/10/24 06:15:02;;;;;;;8.30;1.60;;;;;;;15.70;77.95;100369.06;5039361;28;20048;-50
2022/10/24 06:17:27;;;;;;;7.80;1.45;;;;;;;15.68;78.42;100372.53;5041187;28;20159;-50
2022/10/24 06:19:53;;;;;;;9.45;1.70;;;;;;;15.70;77.95;100378.56;5043644;28;20036;-50
2022/10/24 06:22:18;;;;;;;6.95;1.50;;;;;;;15.67;77.98;100373.41;5043875;28;20060;-49
2022/10/24 06:24:44;;;;;;;10.38;2.25;;;;;;;15.66;78.29;100364.75;5037802;28;20090;-49
2022/10/24 06:27:09;;;;;;;11.98;1.80;;;;;;;15.67;77.96;100376.00;5042454;28;20033;-49
2022/10/24 06:29:35;;;;;;;11.38;1.48;;;;;;;15.67;78.29;100379.44;5039999;28;20506;-50
2022/10/24 06:32:00;;;;;;;7.10;1.35;;;;;;;15.67;78.13;100381.19;5043450;28;21254;-49
2022/10/24 06:34:27;;;;;;;11.20;1.92;;;;;;;15.67;78.31;100381.19;5039499;28;20036;-48
2022/10/24 06:36:53;;;;;;;11.18;1.80;;;;;;;15.67;78.71;100391.53;5043102;28;20533;-51
2022/10/24 06:39:18;;;;;;;6.47;1.20;;;;;;;15.65;78.56;100391.56;5046061;28;20029;-49
2022/10/24 06:41:44;;;;;;;10.18;1.60;;;;;;;15.66;78.71;100395.00;5041897;28;20025;-52
2022/10/24 06:44:09;;;;;;;10.30;1.80;;;;;;;15.63;78.87;100402.75;5040488;28;20021;-51
2022/10/24 06:46:34;;;;;;;6.10;1.50;;;;;;;15.62;79.15;100388.06;5041269;28;20170;-51
2022/10/24 06:49:00;;;;;;;11.73;1.85;;;;;;;15.62;78.98;100404.50;5042905;28;21551;-48
2022/10/24 06:51:25;;;;;;;12.98;1.80;;;;;;;15.60;78.99;100413.97;5038828;28;20052;-49
2022/10/24 06:53:51;;;;;;;11.98;2.25;;;;;;;15.63;79.26;100410.53;5051879;28;20028;-47
2022/10/24 06:56:17;;;;;;;10.07;1.60;;;;;;;15.63;79.21;100415.72;5038041;28;20037;-49
2022/10/24 06:58:42;;;;;;;12.18;1.77;;;;;;;15.63;79.43;100418.31;5042375;28;20050;-51
2022/10/24 07:01:11;;;;;;;9.05;1.70;;;;;;;15.63;79.57;100424.38;5044262;28;20040;-52
2022/10/24 07:03:36;;;;;;;9.82;1.90;;;;;;;15.65;79.64;100430.44;5043389;28;20041;-51
2022/10/24 07:06:19;;;;;;;8.82;1.60;;;;;;;15.68;79.90;100435.59;5044066;28;20459;-52
2022/10/24 07:08:45;;;;;;;10.38;1.60;;;;;;;15.69;79.86;100433.88;5042870;28;20067;-52
2022/10/24 07:11:10;;;;;;;8.57;1.70;;;;;;;15.69;79.41;100433.88;5044127;28;20056;-51
2022/10/24 07:13:36;;;;;;;11.23;1.70;;;;;;;15.68;79.69;100429.56;5047281;28;20037;-47
2022/10/24 07:16:02;;;;;;;8.52;1.50;;;;;;;15.67;80.25;100433.00;5049805;28;20059;-49
2022/10/24 07:18:28;;;;;;;12.25;1.55;;;;;;;15.68;80.20;100429.56;5053150;28;20353;-54
2022/10/24 07:20:53;;;;;;;11.93;1.75;;;;;;;15.67;80.84;100449.44;5047659;28;20382;-51
2022/10/24 07:23:19;;;;;;;8.27;1.67;;;;;;;15.67;81.04;100452.03;5049910;28;20069;-52
2022/10/24 07:25:44;;;;;;;10.88;1.70;;;;;;;15.65;81.35;100443.41;5045615;28;20447;-52
2022/10/24 07:28:10;;;;;;;7.40;1.55;;;;;;;15.68;81.52;100455.47;5044949;28;20043;-50
2022/10/24 07:30:36;;;;;;;8.70;1.85;;;;;;;15.68;81.60;100471.03;5042449;28;20056;-51
2022/10/24 07:33:02;;;;;;;8.65;1.50;;;;;;;15.72;81.84;100472.78;5047709;28;20384;-51
2022/10/24 07:35:27;;;;;;;12.98;1.90;;;;;;;15.75;82.41;100477.94;5046072;28;20051;-50
2022/10/24 07:37:52;;;;;;;9.52;1.52;;;;;;;15.78;82.57;100477.97;5051925;28;20369;-53
2022/10/24 07:40:18;;;;;;;9.27;1.58;;;;;;;15.78;82.64;100478.81;5043324;28;20040;-49
2022/10/24 07:42:44;;;;;;;12.15;2.22;;;;;;;15.79;81.87;100480.53;5050840;28;20389;-49
2022/10/24 07:45:10;;;;;;;9.00;1.80;;;;;;;15.81;82.01;100498.69;5047078;28;20037;-48
2022/10/24 07:47:35;;;;;;;9.68;1.50;;;;;;;15.81;80.37;100484.00;5049886;28;20484;-52
2022/10/24 07:50:00;;;;;;;10.40;1.52;;;;;;;15.82;79.77;100503.00;5048330;28;20035;-52
2022/10/24 07:52:26;;;;;;;7.00;1.27;;;;;;;15.84;79.79;100498.69;5048527;28;20029;-49
2022/10/24 07:54:52;;;;;;;8.27;1.40;;;;;;;15.83;80.87;100496.94;5045431;28;20036;-49
2022/10/24 07:57:18;;;;;;;6.70;1.30;;;;;;;15.82;80.81;100514.22;5047206;28;20572;-49
2022/10/24 07:59:43;;;;;;;9.45;1.73;;;;;;;15.82;81.74;100506.44;5045750;28;20029;-55
2022/10/24 08:02:13;;;;;;;9.60;1.70;;;;;;;15.82;82.38;100516.81;5048226;28;20071;-48
2022/10/24 08:04:39;;;;;;;10.88;1.38;;;;;;;15.82;82.74;100511.63;5045390;28;20059;-49
2022/10/24 08:07:11;;;;;;;10.73;1.70;;;;;;;15.85;82.14;100515.13;5045794;28;20039;-50
2022/10/24 08:09:38;;;;;;;7.30;1.55;;;;;;;15.87;82.12;100526.34;5043729;28;20512;-50
2022/10/24 08:12:04;;;;;;;8.50;1.33;;;;;;;15.94;81.21;100522.88;5048698;28;20473;-50
2022/10/24 08:14:29;;;;;;;10.88;1.45;;;;;;;15.97;81.18;100525.50;5042974;28;20028;-48
2022/10/24 08:16:55;;;;;;;12.68;1.60;;;;;;;16.03;80.55;100525.50;5045135;28;20060;-48
2022/10/24 08:19:20;;;;;;;10.45;1.80;;;;;;;16.01;80.60;100533.25;5047322;28;20254;-52
2022/10/24 08:21:45;;;;;;;9.02;1.50;;;;;;;16.03;80.85;100533.28;5046312;28;20032;-48
2022/10/24 08:24:11;;;;;;;7.28;1.40;;;;;;;16.01;81.33;100535.84;5044897;28;20394;-51
2022/10/24 08:26:39;;;;;;;9.98;1.75;;;;;;;16.06;80.41;100554.03;5044678;28;20086;-49
2022/10/24 08:29:09;;;;;;;14.02;2.08;;;;;;;16.06;80.37;100539.31;5048379;28;20966;-50
2022/10/24 08:31:35;;;;;;;12.95;1.70;;;;;;;16.07;80.23;100538.44;5043341;28;20037;-51
2022/10/24 08:34:00;;;;;;;9.93;1.33;;;;;;;16.12;80.58;100541.06;5044073;28;20025;-51
2022/10/24 08:36:30;;;;;;;10.32;2.03;;;;;;;16.18;80.38;100546.25;5047945;28;20040;-47
2022/10/24 08:38:56;;;;;;;7.38;1.33;;;;;;;16.29;80.28;100531.53;5042789;28;20040;-49
2022/10/24 08:41:32;;;;;;;11.25;1.85;;;;;;;16.47;79.28;100538.44;5044173;28;20025;-48
2022/10/24 08:44:01;;;;;;;8.82;1.23;;;;;;;16.67;77.28;100540.13;5043438;28;20040;-49
2022/10/24 08:46:37;;;;;;;8.00;1.33;;;;;;;16.89;76.24;100526.28;5049707;28;20028;-49
2022/10/24 08:49:12;;;;;;;7.45;1.30;;;;;;;17.11;75.86;100542.66;5042992;28;20025;-47
2022/10/24 08:51:49;;;;;;;7.05;1.40;;;;;;;17.39;74.60;100543.38;5044058;28;20388;-50
2022/10/24 08:54:22;;;;;;;7.68;1.10;;;;;;;17.64;72.68;100547.56;5044842;28;20035;-52
2022/10/24 08:56:48;;;;;;;8.10;1.30;;;;;;;17.72;71.99;100545.00;5045739;28;20024;-51
2022/10/24 08:59:14;;;;;;;7.07;1.42;;;;;;;17.92;70.78;100547.44;5038269;28;20405;-51
2022/10/24 09:01:47;;;;;;;8.38;1.20;;;;;;;18.09;70.34;100548.19;5048294;28;20037;-50
2022/10/24 09:04:18;;;;;;;6.65;1.35;;;;;;;18.23;69.32;100566.28;5051214;28;20485;-50
2022/10/24 09:06:44;;;;;;;5.57;1.20;;;;;;;18.43;68.01;100553.09;5051521;28;20021;-52
2022/10/24 09:09:34;;;;;;;6.05;1.30;;;;;;;18.71;69.38;100553.72;5052590;28;20033;-55
2022/10/24 09:12:03;;;;;;;8.88;1.23;;;;;;;18.81;67.01;100557.97;5046777;28;20473;-51
2022/10/24 09:14:31;;;;;;;7.38;1.27;;;;;;;18.94;65.95;100562.19;5050143;28;20040;-52
2022/10/24 09:17:01;;;;;;;9.05;1.42;;;;;;;19.00;65.25;100572.53;5055422;28;20094;-52
2022/10/24 09:19:29;;;;;;;4.45;1.20;;;;;;;19.07;65.01;100562.03;5051618;28;20033;-50
2022/10/24 09:21:56;;;;;;;7.70;1.38;;;;;;;19.09;64.69;100571.53;5055567;28;20021;-52
2022/10/24 09:24:21;;;;;;;8.45;1.30;;;;;;;19.16;64.11;100569.72;5053222;28;20115;-53
2022/10/24 09:26:47;;;;;;;7.82;1.35;;;;;;;19.16;63.70;100588.84;5052959;28;20108;-51
2022/10/24 09:29:13;;;;;;;6.95;1.30;;;;;;;19.14;64.37;100585.41;5055921;28;20048;-46
2022/10/24 09:31:39;;;;;;;7.35;1.20;;;;;;;19.13;64.71;100578.47;5061289;28;20032;-51
2022/10/24 09:34:05;;;;;;;7.78;1.30;;;;;;;19.12;64.25;100576.75;5036774;28;20075;-53
2022/10/24 09:36:31;;;;;;;8.07;1.40;;;;;;;19.07;64.49;100586.34;5047254;28;20094;-53
2022/10/24 09:39:08;;;;;;;6.15;1.25;;;;;;;19.07;64.13;100575.06;5050512;28;20048;-54
2022/10/24 09:41:33;;;;;;;4.78;1.20;;;;;;;19.03;64.48;100589.84;5050169;28;20029;-47
2022/10/24 09:44:00;;;;;;;10.15;1.85;;;;;;;18.91;64.83;100588.25;5048966;28;20029;-52
2022/10/24 09:46:34;;;;;;;10.20;1.63;;;;;;;18.94;64.79;100580.41;5051775;28;20029;-49
2022/10/24 09:49:13;;;;;;;9.40;2.20;;;;;;;18.96;64.96;100602.09;5049946;28;20085;-47
2022/10/24 09:51:48;;;;;;;8.38;1.60;;;;;;;18.93;65.07;100616.91;5051327;28;20029;-50
2022/10/24 09:54:19;;;;;;;6.25;1.50;;;;;;;18.89;64.80;100604.78;5050882;28;20074;-53
2022/10/24 09:56:58;;;;;;;6.57;1.60;;;;;;;18.88;64.54;100597.84;5048662;28;20543;-44
2022/10/24 09:59:27;;;;;;;10.57;1.50;;;;;;;18.87;65.75;100606.53;5053045;28;20044;-47
2022/10/24 10:02:06;;;;;;;8.40;1.52;;;;;;;18.89;65.56;100623.03;5046853;28;20106;-48
2022/10/24 10:04:33;;;;;;;6.85;1.48;;;;;;;18.82;64.95;100623.97;5036275;28;20064;-50
2022/10/24 10:06:58;;;;;;;6.15;1.40;;;;;;;18.87;65.24;100616.94;5023135;28;20371;-48
2022/10/24 10:09:30;;;;;;;6.22;1.45;;;;;;;18.88;65.36;100629.97;5027709;28;20417;-50
2022/10/24 10:11:57;;;;;;;7.45;1.42;;;;;;;18.89;64.78;100616.06;5027532;28;20565;-52
2022/10/24 10:14:25;;;;;;;8.80;1.60;;;;;;;18.91;64.34;100631.69;5031821;28;20074;-49
2022/10/24 10:16:59;;;;;;;9.63;1.77;;;;;;;18.96;65.13;100629.88;5030866;28;20552;-52
2022/10/24 10:19:25;;;;;;;11.18;1.38;;;;;;;18.88;64.33;100632.59;5033881;28;20025;-50
2022/10/24 10:22:01;;;;;;;9.25;2.22;;;;;;;18.88;65.55;100643.00;5046529;28;20026;-50
2022/10/24 10:24:38;;;;;;;13.90;1.77;;;;;;;18.96;65.75;100640.31;5032708;28;20556;-51
2022/10/24 10:27:31;;;;;;;9.90;1.70;;;;;;;19.08;66.40;100653.22;5027266;28;20164;-50
2022/10/24 10:30:12;;;;;;;8.25;1.38;;;;;;;19.11;65.95;100663.63;5025263;28;20082;-51
2022/10/24 10:33:05;;;;;;;8.23;1.60;;;;;;;19.10;64.92;100661.88;5030350;28;20441;-51
2022/10/24 10:35:43;;;;;;;7.72;1.77;;;;;;;19.02;64.45;100658.50;5023397;28;20413;-51
2022/10/24 10:38:35;;;;;;;13.93;1.90;;;;;;;18.96;64.93;100669.84;5024218;28;20378;-49
2022/10/24 10:41:06;;;;;;;7.35;1.88;;;;;;;18.85;64.85;100671.69;5016947;28;20056;-50
2022/10/24 10:43:57;;;;;;;11.43;2.00;;;;;;;18.84;65.78;100666.47;5025273;28;20284;-52
2022/10/24 10:46:36;;;;;;;8.75;1.50;;;;;;;18.78;65.78;100667.41;5028519;28;21013;-52
2022/10/24 10:49:09;;;;;;;10.95;2.20;;;;;;;18.81;66.33;100672.59;5026348;28;20034;-47
2022/10/24 10:51:52;;;;;;;10.23;1.90;;;;;;;18.88;66.33;100681.22;5028000;28;20063;-50
2022/10/24 10:54:39;;;;;;;8.65;2.03;;;;;;;18.86;65.85;100677.75;5033111;28;20370;-48
2022/10/24 10:57:15;;;;;;;8.13;1.60;;;;;;;18.93;65.64;100692.47;5033279;28;20040;-51
2022/10/24 10:59:59;;;;;;;9.98;1.50;;;;;;;18.94;64.88;100681.16;5031551;28;20056;-52
2022/10/24 11:02:24;;;;;;;7.18;1.88;;;;;;;18.86;64.03;100685.56;5037798;28;20704;-49
2022/10/24 11:05:22;;;;;;;9.18;1.83;;;;;;;18.83;63.96;100693.41;5037386;28;20045;-47
2022/10/24 11:08:03;;;;;;;7.05;1.35;;;;;;;18.72;64.11;100701.31;5016769;28;20052;-50
2022/10/24 11:10:36;;;;;;;8.50;1.60;;;;;;;18.71;64.68;100707.41;5035140;28;20052;-48
2022/10/24 11:13:13;;;;;;;6.90;1.30;;;;;;;18.86;65.27;100702.06;5036711;28;20025;-52
2022/10/24 11:15:43;;;;;;;7.25;1.27;;;;;;;19.04;65.28;100690.59;5023045;28;20049;-49
2022/10/24 11:18:14;;;;;;;8.48;1.70;;;;;;;19.20;65.08;100699.16;5025671;28;20787;-50
2022/10/24 11:20:52;;;;;;;6.78;1.60;;;;;;;19.34;64.76;100697.25;5026770;28;20051;-50
2022/10/24 11:23:32;;;;;;;8.88;1.60;;;;;;;19.45;64.61;100691.94;5027820;28;20043;-51
2022/10/24 11:26:21;;;;;;;12.00;1.50;;;;;;;19.56;64.61;100690.94;5029705;28;20025;-52
2022/10/24 11:28:57;;;;;;;10.07;1.70;;;;;;;19.61;64.77;100701.34;5033983;28;20030;-51
2022/10/24 11:31:38;;;;;;;8.93;1.90;;;;;;;19.71;64.39;100702.94;5030646;28;20036;-50
2022/10/24 11:34:11;;;;;;;13.18;1.88;;;;;;;19.74;63.97;100696.84;5034540;28;20033;-52